Time;durP1;ratioP1;P1;durP2;ratioP2;P2;SDS_P1;SDS_P2;PMS_P1;PMS_P2;Temp;Humidity;BMP_temperature;BMP_pressure;BME280_temperature;BME280_humidity;BME280_pressure;Samples;Min_cycle;Max_cycle;Signal;HPM_P1;HPM_P2
2024/05/03 00:01:35;;;;;;;15.25;7.88;;;;;;;;;;5299823;26;20012;-65
2024/05/03 00:04:01;;;;;;;25.27;8.20;;;;;;;;;;5300341;27;20387;-65
2024/05/03 00:06:26;;;;;;;19.45;7.93;;;;;;;;;;5299566;27;20002;-65
2024/05/03 00:08:51;;;;;;;20.20;8.52;;;;;;;;;;5300417;26;20711;-65
2024/05/03 00:11:17;;;;;;;22.35;9.45;;;;;;;;;;5298332;26;20072;-64
2024/05/03 00:13:42;;;;;;;28.17;8.82;;;;;;;;;;5290605;27;20002;-66
2024/05/03 00:16:07;;;;;;;20.85;7.80;;;;;;;;;;5299348;27;20026;-65
2024/05/03 00:18:33;;;;;;;28.05;8.75;;;;;;;;;;5296591;27;19994;-65
2024/05/03 00:20:58;;;;;;;30.38;8.40;;;;;;;;;;5285669;27;20065;-65
2024/05/03 00:23:24;;;;;;;20.30;8.13;;;;;;;;;;5299668;26;20021;-65
2024/05/03 00:25:49;;;;;;;24.73;9.55;;;;;;;;;;5299670;27;20083;-65
2024/05/03 00:28:14;;;;;;;30.33;9.00;;;;;;;;;;5307296;26;20008;-65
2024/05/03 00:30:40;;;;;;;25.92;9.45;;;;;;;;;;5299159;26;20829;-65
2024/05/03 00:33:05;;;;;;;24.00;8.23;;;;;;;;;;5308351;26;20006;-65
2024/05/03 00:35:30;;;;;;;25.35;8.70;;;;;;;;;;5300092;26;20465;-65
2024/05/03 00:37:56;;;;;;;27.08;9.23;;;;;;;;;;5298743;27;20005;-65
2024/05/03 00:40:21;;;;;;;21.95;7.60;;;;;;;;;;5298326;26;20142;-65
2024/05/03 00:42:47;;;;;;;29.02;10.02;;;;;;;;;;5300058;26;20354;-65
2024/05/03 00:45:12;;;;;;;21.58;9.65;;;;;;;;;;5299098;26;20118;-64
2024/05/03 00:47:37;;;;;;;24.90;7.95;;;;;;;;;;5294735;26;20001;-65
2024/05/03 00:50:03;;;;;;;24.27;9.10;;;;;;;;;;5308577;26;20002;-65
2024/05/03 00:52:30;;;;;;;25.05;9.68;;;;;;;;;;5299306;26;20001;-65
2024/05/03 00:54:56;;;;;;;27.13;9.65;;;;;;;;;;5298895;26;19993;-67
2024/05/03 00:57:22;;;;;;;28.73;9.00;;;;;;;;;;5311256;26;20008;-65
2024/05/03 00:59:48;;;;;;;22.70;8.35;;;;;;;;;;5299239;26;20076;-66
2024/05/03 01:02:13;;;;;;;24.05;9.18;;;;;;;;;;5295049;26;20017;-65
2024/05/03 01:04:39;;;;;;;19.83;8.23;;;;;;;;;;5299122;26;20151;-65
2024/05/03 01:07:04;;;;;;;21.98;8.63;;;;;;;;;;5299090;27;20101;-65
2024/05/03 01:09:29;;;;;;;19.80;8.90;;;;;;;;;;5298590;27;20497;-65
2024/05/03 01:11:55;;;;;;;21.63;8.90;;;;;;;;;;5299153;26;20002;-65
2024/05/03 01:14:20;;;;;;;21.65;7.75;;;;;;;;;;5299012;26;20005;-65
2024/05/03 01:16:46;;;;;;;25.67;9.75;;;;;;;;;;5293631;26;20478;-65
2024/05/03 01:19:11;;;;;;;22.73;8.95;;;;;;;;;;5330022;26;20001;-65
2024/05/03 01:21:49;;;;;;;24.02;8.38;;;;;;;;;;5294604;27;20705;-65
2024/05/03 01:24:17;;;;;;;25.75;9.32;;;;;;;;;;5320630;26;20004;-66
2024/05/03 01:26:43;;;;;;;28.00;8.75;;;;;;;;;;5317646;26;20719;-66
2024/05/03 01:29:09;;;;;;;19.42;8.25;;;;;;;;;;5302377;26;19997;-65
2024/05/03 01:31:34;;;;;;;18.77;7.72;;;;;;;;;;5307555;26;20056;-65
2024/05/03 01:33:59;;;;;;;20.27;9.20;;;;;;;;;;5332459;26;20037;-65
2024/05/03 01:36:25;;;;;;;18.60;8.20;;;;;;;;;;5298495;26;20079;-65
2024/05/03 01:38:50;;;;;;;24.05;8.60;;;;;;;;;;5299100;26;20001;-67
2024/05/03 01:41:16;;;;;;;22.33;8.38;;;;;;;;;;5297386;26;19994;-65
2024/05/03 01:43:41;;;;;;;24.52;9.02;;;;;;;;;;5297307;27;20009;-65
2024/05/03 01:46:06;;;;;;;24.25;9.23;;;;;;;;;;5297184;26;20005;-65
2024/05/03 01:48:32;;;;;;;21.70;10.23;;;;;;;;;;5298355;26;20012;-65
2024/05/03 01:50:57;;;;;;;27.20;10.45;;;;;;;;;;5298838;26;20009;-65
2024/05/03 01:53:22;;;;;;;24.73;10.70;;;;;;;;;;5298144;26;20004;-65
2024/05/03 01:55:48;;;;;;;23.92;10.23;;;;;;;;;;5299054;26;20002;-65
2024/05/03 01:58:13;;;;;;;21.75;8.55;;;;;;;;;;5297805;26;20414;-65
2024/05/03 02:00:40;;;;;;;23.67;9.70;;;;;;;;;;5299328;26;20340;-65
2024/05/03 02:03:05;;;;;;;16.15;8.27;;;;;;;;;;5299750;26;20006;-64
2024/05/03 02:05:31;;;;;;;22.05;8.68;;;;;;;;;;5298326;26;20898;-65
2024/05/03 02:07:56;;;;;;;25.25;9.18;;;;;;;;;;5297916;26;20002;-65
2024/05/03 02:10:21;;;;;;;17.65;7.68;;;;;;;;;;5297642;26;20088;-64
2024/05/03 02:12:47;;;;;;;17.50;7.80;;;;;;;;;;5298761;26;20825;-65
2024/05/03 02:15:12;;;;;;;20.10;7.15;;;;;;;;;;5299097;26;20020;-66
2024/05/03 02:17:38;;;;;;;12.80;6.88;;;;;;;;;;5317358;26;20015;-65
2024/05/03 02:20:03;;;;;;;25.88;7.13;;;;;;;;;;5281653;26;20017;-65
2024/05/03 02:22:29;;;;;;;16.00;6.82;;;;;;;;;;5282227;27;20439;-65
2024/05/03 02:24:54;;;;;;;18.20;6.47;;;;;;;;;;5315071;26;20348;-66
2024/05/03 02:27:20;;;;;;;10.98;6.05;;;;;;;;;;5298380;26;20010;-65
2024/05/03 02:29:45;;;;;;;22.85;6.97;;;;;;;;;;5323613;26;20012;-65
2024/05/03 02:32:10;;;;;;;14.85;7.25;;;;;;;;;;5316880;26;20367;-65
2024/05/03 02:34:36;;;;;;;15.27;5.80;;;;;;;;;;5322680;26;20002;-65
2024/05/03 02:37:01;;;;;;;12.73;5.43;;;;;;;;;;5297341;26;20083;-65
2024/05/03 02:39:26;;;;;;;19.25;6.43;;;;;;;;;;5299093;26;20013;-66
2024/05/03 02:41:52;;;;;;;20.25;6.82;;;;;;;;;;5302129;26;20427;-65
2024/05/03 02:44:18;;;;;;;14.15;6.57;;;;;;;;;;5298552;26;19998;-65
2024/05/03 02:46:44;;;;;;;14.65;5.90;;;;;;;;;;5302616;26;20013;-66
2024/05/03 02:49:09;;;;;;;13.32;5.30;;;;;;;;;;5297715;26;20023;-65
2024/05/03 02:51:35;;;;;;;18.55;4.68;;;;;;;;;;5298352;27;20008;-65
2024/05/03 02:54:01;;;;;;;14.70;4.90;;;;;;;;;;5326088;26;20507;-65
2024/05/03 02:56:27;;;;;;;10.75;4.15;;;;;;;;;;5315423;26;20381;-65
2024/05/03 02:58:53;;;;;;;10.15;4.03;;;;;;;;;;5318494;26;20002;-65
2024/05/03 03:01:18;;;;;;;13.35;4.00;;;;;;;;;;5323455;26;20017;-66
2024/05/03 03:03:44;;;;;;;10.07;3.95;;;;;;;;;;5281945;27;20669;-65
2024/05/03 03:06:09;;;;;;;12.05;4.13;;;;;;;;;;5328564;26;20067;-65
2024/05/03 03:08:35;;;;;;;11.20;3.55;;;;;;;;;;5316395;26;19997;-65
2024/05/03 03:11:00;;;;;;;9.95;3.05;;;;;;;;;;5299914;26;20026;-64
2024/05/03 03:13:29;;;;;;;9.07;3.08;;;;;;;;;;5295841;27;20467;-65
2024/05/03 03:15:55;;;;;;;10.60;3.33;;;;;;;;;;5295851;26;19997;-65
2024/05/03 03:18:20;;;;;;;13.98;3.83;;;;;;;;;;5297523;26;20002;-66
2024/05/03 03:20:46;;;;;;;14.35;4.10;;;;;;;;;;5296842;26;20012;-65
2024/05/03 03:23:11;;;;;;;9.68;3.65;;;;;;;;;;5297684;26;20002;-65
2024/05/03 03:25:37;;;;;;;8.32;3.78;;;;;;;;;;5297014;26;20348;-65
2024/05/03 03:28:02;;;;;;;11.98;3.70;;;;;;;;;;5296783;26;20426;-65
2024/05/03 03:30:28;;;;;;;9.57;3.25;;;;;;;;;;5297545;27;20370;-65
2024/05/03 03:32:53;;;;;;;9.00;3.40;;;;;;;;;;5296857;26;20005;-65
2024/05/03 03:35:19;;;;;;;5.85;2.78;;;;;;;;;;5296966;26;20001;-65
2024/05/03 03:37:44;;;;;;;11.75;3.15;;;;;;;;;;5297161;26;20017;-65
2024/05/03 03:40:09;;;;;;;12.63;3.67;;;;;;;;;;5294912;26;20463;-66
2024/05/03 03:42:36;;;;;;;13.18;3.58;;;;;;;;;;5297250;26;20025;-65
2024/05/03 03:45:01;;;;;;;18.52;4.32;;;;;;;;;;5297267;26;20009;-65
2024/05/03 03:47:28;;;;;;;9.57;4.25;;;;;;;;;;5295991;26;19998;-65
2024/05/03 03:49:53;;;;;;;11.75;4.20;;;;;;;;;;5295312;27;20017;-65
2024/05/03 03:52:19;;;;;;;11.50;4.32;;;;;;;;;;5296658;26;20013;-65
2024/05/03 03:54:44;;;;;;;8.32;3.80;;;;;;;;;;5296735;26;20017;-65
2024/05/03 03:57:09;;;;;;;11.50;4.20;;;;;;;;;;5296967;26;19998;-65
2024/05/03 03:59:35;;;;;;;11.32;3.97;;;;;;;;;;5296546;26;20312;-65
2024/05/03 04:02:00;;;;;;;9.52;3.95;;;;;;;;;;5305504;26;20011;-65
2024/05/03 04:04:25;;;;;;;10.13;3.40;;;;;;;;;;5326212;26;20327;-66
2024/05/03 04:06:51;;;;;;;8.90;3.15;;;;;;;;;;5300213;27;20354;-65
2024/05/03 04:09:16;;;;;;;8.88;2.92;;;;;;;;;;5299001;26;19998;-66
2024/05/03 04:11:41;;;;;;;10.75;3.47;;;;;;;;;;5300628;26;20473;-65
2024/05/03 04:14:07;;;;;;;6.00;2.55;;;;;;;;;;5299092;26;21228;-65
2024/05/03 04:16:34;;;;;;;7.43;2.70;;;;;;;;;;5296154;26;20032;-65
2024/05/03 04:18:59;;;;;;;6.93;2.20;;;;;;;;;;5300404;26;20008;-64
2024/05/03 04:21:25;;;;;;;6.22;2.17;;;;;;;;;;5299642;26;20416;-65
2024/05/03 04:23:50;;;;;;;12.10;2.63;;;;;;;;;;5298580;27;20076;-66
2024/05/03 04:26:15;;;;;;;9.15;2.10;;;;;;;;;;5299455;26;19998;-65
2024/05/03 04:28:42;;;;;;;11.50;3.67;;;;;;;;;;5300053;26;20006;-65
2024/05/03 04:31:07;;;;;;;8.43;2.20;;;;;;;;;;5297190;26;19998;-65
2024/05/03 04:33:33;;;;;;;13.35;2.17;;;;;;;;;;5300208;26;20039;-65
2024/05/03 04:35:58;;;;;;;13.80;2.45;;;;;;;;;;5299692;26;20332;-66
2024/05/03 04:38:23;;;;;;;7.40;2.20;;;;;;;;;;5299074;26;20053;-65
2024/05/03 04:40:50;;;;;;;11.93;3.70;;;;;;;;;;5298977;26;20006;-65
2024/05/03 04:43:16;;;;;;;7.93;2.38;;;;;;;;;;5299636;26;20456;-65
2024/05/03 04:45:41;;;;;;;9.40;2.40;;;;;;;;;;5299620;26;20008;-65
2024/05/03 04:48:07;;;;;;;11.23;2.15;;;;;;;;;;5299123;26;20009;-65
2024/05/03 04:50:32;;;;;;;11.25;2.65;;;;;;;;;;5299216;26;20025;-65
2024/05/03 04:52:57;;;;;;;9.77;2.80;;;;;;;;;;5311129;26;20007;-64
2024/05/03 04:55:23;;;;;;;6.80;2.20;;;;;;;;;;5327911;26;20028;-65
2024/05/03 04:57:48;;;;;;;8.15;2.40;;;;;;;;;;5299502;27;19997;-65
2024/05/03 05:00:13;;;;;;;15.43;2.70;;;;;;;;;;5299452;26;20025;-65
2024/05/03 05:02:39;;;;;;;6.55;2.13;;;;;;;;;;5298227;26;20620;-65
2024/05/03 05:05:04;;;;;;;7.68;2.58;;;;;;;;;;5298500;26;20002;-65
2024/05/03 05:07:30;;;;;;;8.77;2.45;;;;;;;;;;5299397;26;20575;-66
2024/05/03 05:09:55;;;;;;;6.75;2.70;;;;;;;;;;5298975;26;19994;-65
2024/05/03 05:12:21;;;;;;;10.93;2.35;;;;;;;;;;5298855;26;20001;-65
2024/05/03 05:14:46;;;;;;;9.15;2.70;;;;;;;;;;5299032;26;20065;-65
2024/05/03 05:17:12;;;;;;;7.65;2.90;;;;;;;;;;5299094;26;20551;-65
2024/05/03 05:19:37;;;;;;;15.90;2.80;;;;;;;;;;5298914;26;19997;-65
2024/05/03 05:22:10;;;;;;;8.57;2.65;;;;;;;;;;5298187;26;20428;-65
2024/05/03 05:24:37;;;;;;;11.45;2.60;;;;;;;;;;5299265;26;20001;-64
2024/05/03 05:27:03;;;;;;;12.27;2.85;;;;;;;;;;5299338;26;19997;-65
2024/05/03 05:29:32;;;;;;;7.60;2.47;;;;;;;;;;5299209;26;20013;-64
2024/05/03 05:31:58;;;;;;;8.98;2.90;;;;;;;;;;5298552;26;19994;-65
2024/05/03 05:34:24;;;;;;;8.48;2.20;;;;;;;;;;5325338;26;20002;-65
2024/05/03 05:36:50;;;;;;;8.55;2.72;;;;;;;;;;5299186;26;20002;-65
2024/05/03 05:39:15;;;;;;;5.07;2.15;;;;;;;;;;5298970;26;20012;-65
2024/05/03 05:41:40;;;;;;;8.45;2.50;;;;;;;;;;5297479;26;20006;-65
2024/05/03 05:44:07;;;;;;;6.75;2.60;;;;;;;;;;5299314;26;20005;-65
2024/05/03 05:46:36;;;;;;;6.88;2.70;;;;;;;;;;5304788;26;20317;-65
2024/05/03 05:49:02;;;;;;;9.43;2.58;;;;;;;;;;5331238;26;20529;-65
2024/05/03 05:51:27;;;;;;;10.63;2.67;;;;;;;;;;5299174;26;20006;-65
2024/05/03 05:53:56;;;;;;;16.65;3.03;;;;;;;;;;5298143;26;20504;-65
2024/05/03 05:56:26;;;;;;;8.85;2.40;;;;;;;;;;5298488;26;20033;-66
2024/05/03 05:58:52;;;;;;;6.00;2.60;;;;;;;;;;5299033;26;19997;-65
2024/05/03 06:01:19;;;;;;;8.52;2.60;;;;;;;;;;5297901;26;20001;-65
2024/05/03 06:03:45;;;;;;;6.50;2.38;;;;;;;;;;5296713;27;19997;-65
2024/05/03 06:06:10;;;;;;;6.88;2.45;;;;;;;;;;5298364;26;20028;-65
2024/05/03 06:08:36;;;;;;;8.57;3.35;;;;;;;;;;5298712;26;20012;-65
2024/05/03 06:11:01;;;;;;;8.63;3.00;;;;;;;;;;5310496;26;20001;-65
2024/05/03 06:13:26;;;;;;;9.55;3.20;;;;;;;;;;5337021;26;19998;-66
2024/05/03 06:15:52;;;;;;;10.07;3.13;;;;;;;;;;5299820;26;20391;-66
2024/05/03 06:18:17;;;;;;;9.10;2.80;;;;;;;;;;5285737;26;20084;-66
2024/05/03 06:20:43;;;;;;;7.65;2.88;;;;;;;;;;5300445;26;20535;-65
2024/05/03 06:23:08;;;;;;;13.15;3.38;;;;;;;;;;5298111;26;19996;-66
2024/05/03 06:25:33;;;;;;;11.05;3.33;;;;;;;;;;5324662;26;19997;-65
2024/05/03 06:27:59;;;;;;;10.15;3.30;;;;;;;;;;5296761;26;20105;-64
2024/05/03 06:30:24;;;;;;;7.55;3.60;;;;;;;;;;5296210;26;20484;-66
2024/05/03 06:32:49;;;;;;;11.32;3.22;;;;;;;;;;5294990;26;20593;-66
2024/05/03 06:35:15;;;;;;;7.78;3.20;;;;;;;;;;5297159;26;19997;-66
2024/05/03 06:37:40;;;;;;;15.05;4.25;;;;;;;;;;5297738;26;20009;-65
2024/05/03 06:40:09;;;;;;;8.98;3.80;;;;;;;;;;5294975;26;21074;-65
2024/05/03 06:42:34;;;;;;;9.88;3.38;;;;;;;;;;5298045;26;20001;-65
2024/05/03 06:45:00;;;;;;;11.15;3.28;;;;;;;;;;5294955;26;20002;-64
2024/05/03 06:47:25;;;;;;;5.97;2.83;;;;;;;;;;5298457;26;20013;-67
2024/05/03 06:49:50;;;;;;;11.57;3.45;;;;;;;;;;5317993;26;20001;-66
2024/05/03 06:52:16;;;;;;;10.43;3.42;;;;;;;;;;5299595;26;20004;-66
2024/05/03 06:54:42;;;;;;;11.07;3.13;;;;;;;;;;5332258;26;20540;-65
2024/05/03 06:57:08;;;;;;;10.10;3.60;;;;;;;;;;5328460;26;20023;-65
2024/05/03 06:59:33;;;;;;;8.10;2.92;;;;;;;;;;5333969;26;19997;-66
2024/05/03 07:01:58;;;;;;;8.02;3.20;;;;;;;;;;5312940;26;20002;-66
2024/05/03 07:04:24;;;;;;;13.63;3.05;;;;;;;;;;5288888;26;20029;-66
2024/05/03 07:06:50;;;;;;;8.63;3.13;;;;;;;;;;5294829;26;20005;-66
2024/05/03 07:09:15;;;;;;;10.57;3.17;;;;;;;;;;5295959;27;20001;-65
2024/05/03 07:11:42;;;;;;;15.20;3.85;;;;;;;;;;5298256;26;20685;-66
2024/05/03 07:14:10;;;;;;;10.05;3.35;;;;;;;;;;5296870;26;20463;-66
2024/05/03 07:16:36;;;;;;;8.27;3.53;;;;;;;;;;5284553;26;20335;-65
2024/05/03 07:19:01;;;;;;;6.50;3.53;;;;;;;;;;5296995;26;20001;-66
2024/05/03 07:21:28;;;;;;;8.82;3.72;;;;;;;;;;5297366;26;20001;-65
2024/05/03 07:23:54;;;;;;;8.10;3.53;;;;;;;;;;5297995;26;20002;-65
2024/05/03 07:26:20;;;;;;;10.20;3.85;;;;;;;;;;5299449;26;20451;-66
2024/05/03 07:28:45;;;;;;;11.50;4.18;;;;;;;;;;5291619;26;20883;-66
2024/05/03 07:31:11;;;;;;;7.47;3.90;;;;;;;;;;5293423;26;20076;-65
2024/05/03 07:33:38;;;;;;;12.45;4.30;;;;;;;;;;5331128;26;20001;-66
2024/05/03 07:36:05;;;;;;;13.88;4.78;;;;;;;;;;5331572;26;20078;-66
2024/05/03 07:38:31;;;;;;;15.63;4.22;;;;;;;;;;5309555;26;20375;-65
2024/05/03 07:40:57;;;;;;;8.40;4.15;;;;;;;;;;5296880;27;20002;-66
2024/05/03 07:43:22;;;;;;;11.70;4.35;;;;;;;;;;5299326;26;20008;-65
2024/05/03 07:45:47;;;;;;;12.60;5.00;;;;;;;;;;5299325;26;19994;-66
2024/05/03 07:48:13;;;;;;;9.57;4.40;;;;;;;;;;5300156;26;20087;-65
2024/05/03 07:50:38;;;;;;;9.00;4.40;;;;;;;;;;5300157;26;19997;-65
2024/05/03 07:53:03;;;;;;;11.43;4.53;;;;;;;;;;5293285;26;20072;-65
2024/05/03 07:55:29;;;;;;;9.15;4.60;;;;;;;;;;5296712;26;20005;-65
2024/05/03 07:57:54;;;;;;;10.85;4.40;;;;;;;;;;5300680;26;20879;-66
2024/05/03 08:00:19;;;;;;;13.77;5.47;;;;;;;;;;5305515;26;19997;-64
2024/05/03 08:02:45;;;;;;;9.48;5.20;;;;;;;;;;5292619;26;20094;-65
2024/05/03 08:05:11;;;;;;;12.93;5.00;;;;;;;;;;5297966;26;20049;-65
2024/05/03 08:07:36;;;;;;;11.77;5.90;;;;;;;;;;5306997;26;20001;-66
2024/05/03 08:10:02;;;;;;;14.35;5.90;;;;;;;;;;5300139;26;20046;-65
2024/05/03 08:12:27;;;;;;;15.05;6.38;;;;;;;;;;5306675;26;20000;-65
2024/05/03 08:14:52;;;;;;;14.40;6.32;;;;;;;;;;5303417;26;20053;-66
2024/05/03 08:17:19;;;;;;;15.82;6.53;;;;;;;;;;5310192;26;20008;-66
2024/05/03 08:19:45;;;;;;;15.73;6.85;;;;;;;;;;5309024;26;20013;-66
2024/05/03 08:22:11;;;;;;;13.95;7.10;;;;;;;;;;5294495;26;20153;-65
2024/05/03 08:24:37;;;;;;;12.27;6.38;;;;;;;;;;5298909;26;20002;-66
2024/05/03 08:27:02;;;;;;;13.10;6.57;;;;;;;;;;5293701;26;20006;-66
2024/05/03 08:29:28;;;;;;;15.25;7.05;;;;;;;;;;5299358;26;20001;-66
2024/05/03 08:31:53;;;;;;;16.70;5.95;;;;;;;;;;5293290;26;20019;-64
2024/05/03 08:34:19;;;;;;;11.30;6.32;;;;;;;;;;5344893;26;20012;-65
2024/05/03 08:36:44;;;;;;;15.18;6.13;;;;;;;;;;5301489;26;20053;-66
2024/05/03 08:39:09;;;;;;;16.17;6.70;;;;;;;;;;5297962;26;20086;-65
2024/05/03 08:41:41;;;;;;;10.10;5.82;;;;;;;;;;5295198;26;20639;-65
2024/05/03 08:44:22;;;;;;;12.48;6.43;;;;;;;;;;5282091;26;20008;-65
2024/05/03 08:46:52;;;;;;;7.90;4.25;;;;;;;;;;5267928;26;20013;-65
2024/05/03 08:49:27;;;;;;;14.45;6.05;;;;;;;;;;5276502;26;19998;-64
2024/05/03 08:51:58;;;;;;;11.68;4.63;;;;;;;;;;5299209;26;20020;-65
2024/05/03 08:54:25;;;;;;;8.65;5.30;;;;;;;;;;5308637;26;20013;-65
2024/05/03 08:56:51;;;;;;;12.45;6.43;;;;;;;;;;5295364;26;19997;-65
2024/05/03 08:59:16;;;;;;;10.80;5.57;;;;;;;;;;5295899;26;20021;-65
2024/05/03 09:01:42;;;;;;;10.52;5.93;;;;;;;;;;5287534;26;20034;-65
2024/05/03 09:04:08;;;;;;;10.63;6.50;;;;;;;;;;5266934;26;20002;-65
2024/05/03 09:06:36;;;;;;;13.65;5.90;;;;;;;;;;5295654;26;20002;-65
2024/05/03 09:09:02;;;;;;;13.95;6.55;;;;;;;;;;5316329;26;19997;-65
2024/05/03 09:11:27;;;;;;;12.95;6.00;;;;;;;;;;5278378;26;19998;-65
2024/05/03 09:13:54;;;;;;;14.45;5.30;;;;;;;;;;5277748;26;20016;-65
2024/05/03 09:16:25;;;;;;;8.60;5.50;;;;;;;;;;5294207;26;20838;-65
2024/05/03 09:18:54;;;;;;;10.95;6.00;;;;;;;;;;5264643;27;20037;-65
2024/05/03 09:21:20;;;;;;;10.70;5.80;;;;;;;;;;5297478;26;20001;-65
2024/05/03 09:23:46;;;;;;;12.65;5.45;;;;;;;;;;5272441;26;20010;-65
2024/05/03 09:26:11;;;;;;;12.05;5.80;;;;;;;;;;5264511;26;20356;-65
2024/05/03 09:28:41;;;;;;;11.38;5.57;;;;;;;;;;5252155;26;20557;-65
2024/05/03 09:31:06;;;;;;;12.82;4.80;;;;;;;;;;5265190;27;20566;-66
2024/05/03 09:33:32;;;;;;;8.95;4.25;;;;;;;;;;5295950;26;19994;-66
2024/05/03 09:35:57;;;;;;;10.95;4.85;;;;;;;;;;5280046;26;19998;-65
2024/05/03 09:38:23;;;;;;;13.05;5.00;;;;;;;;;;5296294;26;19997;-65
2024/05/03 09:40:51;;;;;;;10.52;4.45;;;;;;;;;;5300881;26;20025;-65
2024/05/03 09:43:17;;;;;;;10.60;4.63;;;;;;;;;;5294416;27;20294;-65
2024/05/03 09:45:50;;;;;;;13.18;4.65;;;;;;;;;;5298448;27;20390;-65
2024/05/03 09:48:21;;;;;;;9.75;4.45;;;;;;;;;;5293445;26;20012;-64
2024/05/03 09:50:53;;;;;;;9.38;4.55;;;;;;;;;;5294213;26;20017;-65
2024/05/03 09:53:28;;;;;;;7.05;4.07;;;;;;;;;;5294238;26;20458;-65
2024/05/03 09:56:07;;;;;;;10.77;4.60;;;;;;;;;;5285195;26;20074;-66
2024/05/03 09:58:54;;;;;;;11.80;4.60;;;;;;;;;;5296629;26;20026;-65
2024/05/03 10:01:25;;;;;;;8.02;3.80;;;;;;;;;;5296427;26;20008;-65
2024/05/03 10:03:52;;;;;;;11.00;4.07;;;;;;;;;;5316991;26;20007;-66
2024/05/03 10:06:19;;;;;;;8.95;4.47;;;;;;;;;;5304204;26;20045;-66
2024/05/03 10:08:45;;;;;;;7.35;4.28;;;;;;;;;;5296174;26;20006;-66
2024/05/03 10:11:11;;;;;;;8.57;4.05;;;;;;;;;;5297417;26;20313;-65
2024/05/03 10:13:38;;;;;;;8.90;4.18;;;;;;;;;;5297696;26;20087;-65
2024/05/03 10:16:05;;;;;;;6.53;3.38;;;;;;;;;;5307808;26;20420;-65
2024/05/03 10:18:31;;;;;;;10.02;3.67;;;;;;;;;;5301325;26;20471;-65
2024/05/03 10:20:57;;;;;;;6.53;4.10;;;;;;;;;;5299277;26;19997;-65
2024/05/03 10:23:22;;;;;;;7.68;3.75;;;;;;;;;;5304977;26;20005;-65
2024/05/03 10:25:48;;;;;;;5.22;2.97;;;;;;;;;;5308751;26;20056;-65
2024/05/03 10:28:14;;;;;;;4.85;3.45;;;;;;;;;;5300405;26;20002;-65
2024/05/03 10:30:47;;;;;;;6.30;2.67;;;;;;;;;;5287317;26;20003;-65
2024/05/03 10:33:14;;;;;;;9.37;3.00;;;;;;;;;;5297637;26;20012;-65
2024/05/03 10:35:47;;;;;;;6.93;2.58;;;;;;;;;;5300721;26;20448;-66
2024/05/03 10:38:13;;;;;;;6.10;2.45;;;;;;;;;;5296072;27;20010;-65
2024/05/03 10:40:39;;;;;;;6.30;2.72;;;;;;;;;;5295700;26;20027;-65
2024/05/03 10:43:05;;;;;;;7.88;3.20;;;;;;;;;;5297214;27;20012;-65
2024/05/03 10:45:32;;;;;;;4.30;2.40;;;;;;;;;;5325582;26;20482;-66
2024/05/03 10:48:02;;;;;;;4.95;2.72;;;;;;;;;;5319372;26;20001;-65
2024/05/03 10:50:29;;;;;;;8.60;2.40;;;;;;;;;;5311666;26;20011;-65
2024/05/03 10:52:55;;;;;;;7.30;2.25;;;;;;;;;;5315741;26;20324;-65
2024/05/03 10:55:22;;;;;;;4.30;2.50;;;;;;;;;;5314034;26;20016;-65
2024/05/03 10:57:47;;;;;;;6.32;2.50;;;;;;;;;;5311703;26;20011;-65
2024/05/03 11:00:13;;;;;;;6.30;2.03;;;;;;;;;;5308710;26;20328;-65
2024/05/03 11:02:39;;;;;;;10.55;2.45;;;;;;;;;;5312787;26;19993;-65
2024/05/03 11:05:05;;;;;;;3.70;2.10;;;;;;;;;;5316175;26;20013;-66
2024/05/03 11:07:35;;;;;;;6.20;2.10;;;;;;;;;;5316377;26;20732;-64
2024/05/03 11:10:02;;;;;;;5.30;2.50;;;;;;;;;;5326132;26;20004;-65
2024/05/03 11:12:27;;;;;;;4.63;1.98;;;;;;;;;;5317431;26;20015;-66
2024/05/03 11:14:54;;;;;;;6.35;1.70;;;;;;;;;;5320594;26;20001;-66
2024/05/03 11:17:21;;;;;;;5.00;1.95;;;;;;;;;;5320374;26;19997;-65
2024/05/03 11:19:46;;;;;;;5.43;2.05;;;;;;;;;;5317276;26;20000;-66
2024/05/03 11:22:25;;;;;;;4.80;1.77;;;;;;;;;;5314986;26;19998;-65
2024/05/03 11:25:03;;;;;;;6.63;2.33;;;;;;;;;;5317775;26;20463;-66
2024/05/03 11:27:41;;;;;;;4.97;2.60;;;;;;;;;;5321049;26;19993;-66
2024/05/03 11:30:07;;;;;;;4.35;2.35;;;;;;;;;;5284272;27;20005;-66
2024/05/03 11:32:33;;;;;;;6.70;2.47;;;;;;;;;;5314330;26;20038;-66
2024/05/03 11:35:00;;;;;;;6.25;2.63;;;;;;;;;;5334912;26;20580;-65
2024/05/03 11:37:26;;;;;;;6.60;2.67;;;;;;;;;;5290443;26;19996;-66
2024/05/03 11:39:58;;;;;;;8.90;2.75;;;;;;;;;;5315312;26;20360;-65
2024/05/03 11:42:24;;;;;;;4.68;2.47;;;;;;;;;;5315691;26;19998;-66
2024/05/03 11:44:49;;;;;;;6.47;2.28;;;;;;;;;;5319055;26;20027;-65
2024/05/03 11:47:15;;;;;;;8.73;2.58;;;;;;;;;;5335853;26;19993;-66
2024/05/03 11:49:40;;;;;;;9.05;3.10;;;;;;;;;;5317589;26;20427;-66
2024/05/03 11:52:06;;;;;;;6.05;2.80;;;;;;;;;;5319644;26;20331;-66
2024/05/03 11:54:31;;;;;;;7.03;2.38;;;;;;;;;;5318134;26;19997;-65
2024/05/03 11:56:57;;;;;;;5.10;2.65;;;;;;;;;;5315434;26;20001;-66
2024/05/03 11:59:22;;;;;;;6.53;2.83;;;;;;;;;;5309937;26;20016;-65
2024/05/03 12:01:48;;;;;;;5.57;3.08;;;;;;;;;;5316828;26;20025;-66
2024/05/03 12:04:13;;;;;;;18.20;3.42;;;;;;;;;;5319743;26;20037;-66
2024/05/03 12:06:38;;;;;;;5.00;2.17;;;;;;;;;;5317170;26;20484;-65
2024/05/03 12:09:04;;;;;;;3.88;2.20;;;;;;;;;;5311983;26;20001;-65
2024/05/03 12:11:29;;;;;;;6.45;2.25;;;;;;;;;;5313173;26;20052;-65
2024/05/03 12:13:55;;;;;;;4.72;2.90;;;;;;;;;;5318363;26;20021;-66
2024/05/03 12:16:20;;;;;;;4.85;3.00;;;;;;;;;;5319586;26;20451;-65
2024/05/03 12:18:46;;;;;;;4.78;2.38;;;;;;;;;;5315384;26;19997;-65
2024/05/03 12:21:12;;;;;;;5.05;2.60;;;;;;;;;;5312115;26;20001;-65
2024/05/03 12:23:37;;;;;;;3.90;2.85;;;;;;;;;;5314207;26;20409;-66
2024/05/03 12:26:03;;;;;;;6.63;2.95;;;;;;;;;;5316505;26;19992;-66
2024/05/03 12:28:28;;;;;;;5.30;2.90;;;;;;;;;;5319699;26;20003;-64
2024/05/03 12:30:54;;;;;;;7.90;3.08;;;;;;;;;;5314309;26;20012;-66
2024/05/03 12:33:19;;;;;;;3.08;2.13;;;;;;;;;;5321787;26;20571;-66
2024/05/03 12:35:44;;;;;;;7.03;2.20;;;;;;;;;;5329867;26;19993;-66
2024/05/03 12:38:10;;;;;;;3.05;2.40;;;;;;;;;;5312313;26;20006;-64
2024/05/03 12:40:36;;;;;;;4.25;2.40;;;;;;;;;;5312178;26;20576;-64
2024/05/03 12:43:01;;;;;;;4.53;2.05;;;;;;;;;;5321528;26;20007;-66
2024/05/03 12:45:27;;;;;;;4.95;2.38;;;;;;;;;;5289883;26;20011;-64
2024/05/03 12:47:52;;;;;;;4.70;2.22;;;;;;;;;;5335345;26;20060;-65
2024/05/03 12:50:18;;;;;;;4.38;2.20;;;;;;;;;;5314322;26;20011;-65
2024/05/03 12:52:43;;;;;;;4.13;2.85;;;;;;;;;;5317808;26;20081;-65
2024/05/03 12:55:08;;;;;;;4.72;2.15;;;;;;;;;;5313677;26;20083;-65
2024/05/03 12:57:34;;;;;;;4.18;2.58;;;;;;;;;;5313906;26;20009;-65
2024/05/03 13:00:00;;;;;;;4.32;1.65;;;;;;;;;;5288886;26;20611;-66
2024/05/03 13:02:26;;;;;;;4.32;2.20;;;;;;;;;;5285670;26;20620;-64
2024/05/03 13:04:52;;;;;;;2.55;1.70;;;;;;;;;;5314111;26;19997;-65
2024/05/03 13:07:18;;;;;;;5.20;2.00;;;;;;;;;;5311596;26;20008;-65
2024/05/03 13:09:50;;;;;;;2.85;1.80;;;;;;;;;;5314620;26;20336;-64
2024/05/03 13:12:31;;;;;;;3.05;1.38;;;;;;;;;;5319137;26;20045;-64
2024/05/03 13:14:56;;;;;;;2.95;1.30;;;;;;;;;;5314261;26;20814;-65
2024/05/03 13:17:21;;;;;;;1.70;1.45;;;;;;;;;;5311811;26;20072;-65
2024/05/03 13:19:47;;;;;;;3.42;1.58;;;;;;;;;;5315817;26;20017;-65
2024/05/03 13:22:12;;;;;;;4.68;1.48;;;;;;;;;;5319043;26;20074;-65
2024/05/03 13:24:38;;;;;;;4.10;1.40;;;;;;;;;;5319767;26;20338;-64
2024/05/03 13:27:04;;;;;;;2.85;1.38;;;;;;;;;;5283117;27;19998;-64
2024/05/03 13:29:29;;;;;;;3.08;1.40;;;;;;;;;;5312846;26;20014;-65
2024/05/03 13:31:54;;;;;;;8.95;1.63;;;;;;;;;;5315898;26;20008;-65
2024/05/03 13:34:20;;;;;;;5.10;1.40;;;;;;;;;;5332661;26;20099;-65
2024/05/03 13:36:46;;;;;;;1.63;1.30;;;;;;;;;;5318782;26;20713;-64
2024/05/03 13:39:12;;;;;;;8.15;2.38;;;;;;;;;;5319395;26;20048;-65
2024/05/03 13:41:37;;;;;;;4.10;1.67;;;;;;;;;;5318055;26;20016;-65
2024/05/03 13:44:03;;;;;;;3.92;2.03;;;;;;;;;;5314295;26;20068;-65
2024/05/03 13:46:28;;;;;;;3.22;1.60;;;;;;;;;;5324678;26;19997;-64
2024/05/03 13:48:53;;;;;;;2.90;1.70;;;;;;;;;;5332331;26;20005;-65
2024/05/03 13:51:19;;;;;;;2.95;2.13;;;;;;;;;;5283280;27;19997;-66
2024/05/03 13:53:44;;;;;;;3.33;2.20;;;;;;;;;;5314865;26;20024;-64
2024/05/03 13:56:10;;;;;;;4.93;2.20;;;;;;;;;;5320455;26;20012;-64
2024/05/03 13:58:35;;;;;;;3.40;2.35;;;;;;;;;;5319781;26;20015;-64
2024/05/03 14:01:00;;;;;;;6.13;2.20;;;;;;;;;;5315460;26;20069;-65
2024/05/03 14:03:26;;;;;;;3.70;2.25;;;;;;;;;;5314466;26;20016;-65
2024/05/03 14:05:53;;;;;;;4.07;2.22;;;;;;;;;;5309025;26;20052;-64
2024/05/03 14:08:19;;;;;;;3.67;2.20;;;;;;;;;;5314364;26;19997;-65
2024/05/03 14:10:45;;;;;;;3.35;2.40;;;;;;;;;;5278555;26;20010;-65
2024/05/03 14:13:10;;;;;;;4.63;2.20;;;;;;;;;;5298178;26;20012;-65
2024/05/03 14:15:35;;;;;;;5.55;2.15;;;;;;;;;;5298718;26;19997;-65
2024/05/03 14:18:01;;;;;;;6.18;2.20;;;;;;;;;;5271215;26;20012;-64
2024/05/03 14:20:26;;;;;;;7.03;2.40;;;;;;;;;;5317105;26;19998;-64
2024/05/03 14:22:52;;;;;;;5.07;2.67;;;;;;;;;;5297061;26;19994;-64
2024/05/03 14:25:17;;;;;;;3.55;2.25;;;;;;;;;;5300563;26;20012;-65
2024/05/03 14:27:42;;;;;;;3.17;2.13;;;;;;;;;;5327792;26;20363;-65
2024/05/03 14:30:08;;;;;;;3.78;2.10;;;;;;;;;;5304207;26;20005;-65